sensor_id;sensor_type;location;lat;lon;timestamp;pressure;altitude;pressure_sealevel;temperature;humidity
69842;BME280;57138;51.326;-0.068;2023-04-21T00:02:09;99810.84;;;6.33;85.45
69842;BME280;57138;51.326;-0.068;2023-04-21T00:04:34;99800.91;;;6.27;85.22
69842;BME280;57138;51.326;-0.068;2023-04-21T00:07:00;99812.84;;;6.31;84.50
69842;BME280;57138;51.326;-0.068;2023-04-21T00:09:27;99812.84;;;6.31;85.20
69842;BME280;57138;51.326;-0.068;2023-04-21T00:11:53;99813.50;;;6.33;86.76
69842;BME280;57138;51.326;-0.068;2023-04-21T00:14:18;99817.78;;;6.34;86.06
69842;BME280;57138;51.326;-0.068;2023-04-21T00:16:44;99803.53;;;6.35;87.58
69842;BME280;57138;51.326;-0.068;2023-04-21T00:19:09;99808.84;;;6.35;85.59
69842;BME280;57138;51.326;-0.068;2023-04-21T00:21:34;99804.50;;;6.34;84.74
69842;BME280;57138;51.326;-0.068;2023-04-21T00:24:00;99799.03;;;6.36;86.63
69842;BME280;57138;51.326;-0.068;2023-04-21T00:26:32;99797.06;;;6.38;87.34
69842;BME280;57138;51.326;-0.068;2023-04-21T00:29:00;99789.59;;;6.33;85.59
69842;BME280;57138;51.326;-0.068;2023-04-21T00:31:25;99797.06;;;6.38;84.59
69842;BME280;57138;51.326;-0.068;2023-04-21T00:33:52;99782.16;;;6.28;86.07
69842;BME280;57138;51.326;-0.068;2023-04-21T00:36:18;99793.72;;;6.36;88.55
69842;BME280;57138;51.326;-0.068;2023-04-21T00:38:43;99786.78;;;6.35;87.06
69842;BME280;57138;51.326;-0.068;2023-04-21T00:41:09;99792.56;;;6.38;87.35
69842;BME280;57138;51.326;-0.068;2023-04-21T00:43:35;99791.56;;;6.39;85.63
69842;BME280;57138;51.326;-0.068;2023-04-21T00:46:00;99774.50;;;6.34;85.78
69842;BME280;57138;51.326;-0.068;2023-04-21T00:48:26;99781.59;;;6.41;84.21
69842;BME280;57138;51.326;-0.068;2023-04-21T00:50:51;99764.16;;;6.39;86.47
69842;BME280;57138;51.326;-0.068;2023-04-21T00:53:18;99774.63;;;6.40;86.36
69842;BME280;57138;51.326;-0.068;2023-04-21T00:55:44;99766.34;;;6.35;85.00
69842;BME280;57138;51.326;-0.068;2023-04-21T00:58:10;99780.28;;;6.37;84.81
69842;BME280;57138;51.326;-0.068;2023-04-21T01:00:37;99760.88;;;6.37;86.29
69842;BME280;57138;51.326;-0.068;2023-04-21T01:03:04;99749.47;;;6.28;88.51
69842;BME280;57138;51.326;-0.068;2023-04-21T01:05:30;99769.19;;;6.34;85.79
69842;BME280;57138;51.326;-0.068;2023-04-21T01:07:56;99756.41;;;6.29;87.66
69842;BME280;57138;51.326;-0.068;2023-04-21T01:10:22;99744.97;;;6.28;85.78
69842;BME280;57138;51.326;-0.068;2023-04-21T01:12:47;99733.03;;;6.24;87.37
69842;BME280;57138;51.326;-0.068;2023-04-21T01:15:16;99738.34;;;6.24;86.36
69842;BME280;57138;51.326;-0.068;2023-04-21T01:17:42;99748.75;;;6.34;87.42
69842;BME280;57138;51.326;-0.068;2023-04-21T01:20:11;99743.81;;;6.31;86.59
69842;BME280;57138;51.326;-0.068;2023-04-21T01:22:39;99739.50;;;6.30;89.11
69842;BME280;57138;51.326;-0.068;2023-04-21T01:25:09;99719.47;;;6.19;87.72
69842;BME280;57138;51.326;-0.068;2023-04-21T01:27:35;99738.84;;;6.28;86.34
69842;BME280;57138;51.326;-0.068;2023-04-21T01:30:02;99731.53;;;6.30;87.78
69842;BME280;57138;51.326;-0.068;2023-04-21T01:32:28;99715.81;;;6.20;87.93
69842;BME280;57138;51.326;-0.068;2023-04-21T01:34:55;99717.28;;;6.23;87.23
69842;BME280;57138;51.326;-0.068;2023-04-21T01:37:26;99708.03;;;6.19;88.95
69842;BME280;57138;51.326;-0.068;2023-04-21T01:40:00;99709.16;;;6.24;88.42
69842;BME280;57138;51.326;-0.068;2023-04-21T01:42:30;99732.81;;;6.34;87.75
69842;BME280;57138;51.326;-0.068;2023-04-21T01:44:56;99721.69;;;6.39;88.51
69842;BME280;57138;51.326;-0.068;2023-04-21T01:47:23;99718.72;;;6.34;86.37
69842;BME280;57138;51.326;-0.068;2023-04-21T01:49:49;99719.19;;;6.37;86.11
69842;BME280;57138;51.326;-0.068;2023-04-21T01:52:15;99725.66;;;6.43;85.52
69842;BME280;57138;51.326;-0.068;2023-04-21T01:54:40;99705.97;;;6.29;85.91
69842;BME280;57138;51.326;-0.068;2023-04-21T01:57:06;99724.34;;;6.39;86.57
69842;BME280;57138;51.326;-0.068;2023-04-21T01:59:37;99705.16;;;6.28;87.98
69842;BME280;57138;51.326;-0.068;2023-04-21T02:02:04;99721.16;;;6.43;85.32
69842;BME280;57138;51.326;-0.068;2023-04-21T02:04:32;99698.47;;;6.33;87.63
69842;BME280;57138;51.326;-0.068;2023-04-21T02:06:58;99712.56;;;6.41;88.22
69842;BME280;57138;51.326;-0.068;2023-04-21T02:09:29;99698.81;;;6.38;85.66
69842;BME280;57138;51.326;-0.068;2023-04-21T02:11:59;99696.63;;;6.41;87.51
69842;BME280;57138;51.326;-0.068;2023-04-21T02:14:28;99675.44;;;6.33;87.82
69842;BME280;57138;51.326;-0.068;2023-04-21T02:16:58;99694.59;;;6.43;87.42
69842;BME280;57138;51.326;-0.068;2023-04-21T02:19:27;99683.69;;;6.38;86.94
69842;BME280;57138;51.326;-0.068;2023-04-21T02:21:55;99685.34;;;6.39;85.64
69842;BME280;57138;51.326;-0.068;2023-04-21T02:24:21;99667.34;;;6.26;85.61
69842;BME280;57138;51.326;-0.068;2023-04-21T02:26:47;99673.13;;;6.30;86.40
69842;BME280;57138;51.326;-0.068;2023-04-21T02:29:13;99682.19;;;6.36;86.49
69842;BME280;57138;51.326;-0.068;2023-04-21T02:31:39;99671.75;;;6.34;87.47
69842;BME280;57138;51.326;-0.068;2023-04-21T02:34:16;99659.19;;;6.28;86.59
69842;BME280;57138;51.326;-0.068;2023-04-21T02:36:43;99662.69;;;6.28;87.09
69842;BME280;57138;51.326;-0.068;2023-04-21T02:39:08;99644.44;;;6.25;88.76
69842;BME280;57138;51.326;-0.068;2023-04-21T02:41:34;99647.75;;;6.27;87.48
69842;BME280;57138;51.326;-0.068;2023-04-21T02:44:00;99656.84;;;6.33;87.61
69842;BME280;57138;51.326;-0.068;2023-04-21T02:46:26;99653.41;;;6.24;87.61
69842;BME280;57138;51.326;-0.068;2023-04-21T02:48:56;99657.53;;;6.27;87.42
69842;BME280;57138;51.326;-0.068;2023-04-21T02:51:26;99672.44;;;6.36;88.00
69842;BME280;57138;51.326;-0.068;2023-04-21T02:53:52;99663.78;;;6.34;87.38
69842;BME280;57138;51.326;-0.068;2023-04-21T02:56:26;99659.66;;;6.32;87.08
69842;BME280;57138;51.326;-0.068;2023-04-21T02:58:55;99646.28;;;6.25;86.74
69842;BME280;57138;51.326;-0.068;2023-04-21T03:01:25;99643.97;;;6.22;86.32
69842;BME280;57138;51.326;-0.068;2023-04-21T03:03:55;99636.69;;;6.16;88.01
69842;BME280;57138;51.326;-0.068;2023-04-21T03:06:27;99630.06;;;6.11;85.54
69842;BME280;57138;51.326;-0.068;2023-04-21T03:09:05;99642.66;;;6.18;87.19
69842;BME280;57138;51.326;-0.068;2023-04-21T03:11:31;99636.38;;;6.10;88.08
69842;BME280;57138;51.326;-0.068;2023-04-21T03:13:57;99629.44;;;6.09;88.32
69842;BME280;57138;51.326;-0.068;2023-04-21T03:16:22;99638.16;;;6.18;87.21
69842;BME280;57138;51.326;-0.068;2023-04-21T03:18:48;99622.47;;;6.08;86.81
69842;BME280;57138;51.326;-0.068;2023-04-21T03:21:16;99646.66;;;6.14;85.97
69842;BME280;57138;51.326;-0.068;2023-04-21T03:23:46;99652.63;;;6.16;85.94
69842;BME280;57138;51.326;-0.068;2023-04-21T03:26:27;99627.78;;;6.08;86.88
69842;BME280;57138;51.326;-0.068;2023-04-21T03:28:54;99607.25;;;5.94;86.99
69842;BME280;57138;51.326;-0.068;2023-04-21T03:31:25;99619.50;;;6.03;87.14
69842;BME280;57138;51.326;-0.068;2023-04-21T03:34:02;99609.22;;;5.92;87.08
69842;BME280;57138;51.326;-0.068;2023-04-21T03:36:28;99600.34;;;5.85;88.97
69842;BME280;57138;51.326;-0.068;2023-04-21T03:39:00;99591.34;;;5.86;88.91
69842;BME280;57138;51.326;-0.068;2023-04-21T03:41:39;99617.22;;;6.00;87.04
69842;BME280;57138;51.326;-0.068;2023-04-21T03:46:52;99605.41;;;5.94;90.76
69842;BME280;57138;51.326;-0.068;2023-04-21T03:49:19;99597.47;;;5.94;88.14
69842;BME280;57138;51.326;-0.068;2023-04-21T03:51:45;99588.69;;;5.86;89.70
69842;BME280;57138;51.326;-0.068;2023-04-21T03:54:11;99602.44;;;5.98;89.78
69842;BME280;57138;51.326;-0.068;2023-04-21T03:56:37;99594.31;;;5.99;90.42
69842;BME280;57138;51.326;-0.068;2023-04-21T03:59:05;99589.66;;;6.01;89.43
69842;BME280;57138;51.326;-0.068;2023-04-21T04:01:33;99577.41;;;6.00;89.12
69842;BME280;57138;51.326;-0.068;2023-04-21T04:04:00;99587.31;;;6.06;89.77
69842;BME280;57138;51.326;-0.068;2023-04-21T04:06:25;99583.53;;;6.01;89.44
69842;BME280;57138;51.326;-0.068;2023-04-21T04:08:52;99576.38;;;6.01;88.44
69842;BME280;57138;51.326;-0.068;2023-04-21T04:11:18;99560.47;;;5.93;88.38
69842;BME280;57138;51.326;-0.068;2023-04-21T04:13:43;99563.78;;;5.95;89.78
69842;BME280;57138;51.326;-0.068;2023-04-21T04:16:09;99558.81;;;5.92;88.17
69842;BME280;57138;51.326;-0.068;2023-04-21T04:18:34;99553.84;;;5.89;87.17
69842;BME280;57138;51.326;-0.068;2023-04-21T04:21:06;99553.84;;;5.89;86.87
69842;BME280;57138;51.326;-0.068;2023-04-21T04:23:33;99534.53;;;5.80;87.49
69842;BME280;57138;51.326;-0.068;2023-04-21T04:26:05;99541.78;;;5.86;88.97
69842;BME280;57138;51.326;-0.068;2023-04-21T04:28:31;99544.13;;;5.81;86.87
69842;BME280;57138;51.326;-0.068;2023-04-21T04:31:02;99540.94;;;5.86;89.79
69842;BME280;57138;51.326;-0.068;2023-04-21T04:33:29;99534.06;;;5.76;89.45
69842;BME280;57138;51.326;-0.068;2023-04-21T04:35:54;99544.63;;;5.85;88.78
69842;BME280;57138;51.326;-0.068;2023-04-21T04:38:20;99516.19;;;5.70;88.45
69842;BME280;57138;51.326;-0.068;2023-04-21T04:40:54;99544.44;;;5.86;88.35
69842;BME280;57138;51.326;-0.068;2023-04-21T04:43:25;99529.88;;;5.82;88.47
69842;BME280;57138;51.326;-0.068;2023-04-21T04:45:51;99510.88;;;5.70;89.23
69842;BME280;57138;51.326;-0.068;2023-04-21T04:48:19;99528.03;;;5.83;87.98
69842;BME280;57138;51.326;-0.068;2023-04-21T04:50:45;99507.56;;;5.68;87.19
69842;BME280;57138;51.326;-0.068;2023-04-21T04:53:10;99521.44;;;5.79;89.31
69842;BME280;57138;51.326;-0.068;2023-04-21T04:55:36;99508.69;;;5.74;87.82
69842;BME280;57138;51.326;-0.068;2023-04-21T04:58:02;99507.38;;;5.70;88.84
69842;BME280;57138;51.326;-0.068;2023-04-21T05:00:27;99527.56;;;5.79;88.25
69842;BME280;57138;51.326;-0.068;2023-04-21T05:02:53;99511.06;;;5.69;89.37
69842;BME280;57138;51.326;-0.068;2023-04-21T05:05:19;99522.78;;;5.74;89.46
69842;BME280;57138;51.326;-0.068;2023-04-21T05:07:46;99517.47;;;5.74;88.61
69842;BME280;57138;51.326;-0.068;2023-04-21T05:10:12;99505.25;;;5.65;86.92
69842;BME280;57138;51.326;-0.068;2023-04-21T05:12:37;99521.44;;;5.79;89.59
69842;BME280;57138;51.326;-0.068;2023-04-21T05:15:04;99499.44;;;5.70;90.01
69842;BME280;57138;51.326;-0.068;2023-04-21T05:17:32;99499.59;;;5.68;87.91
69842;BME280;57138;51.326;-0.068;2023-04-21T05:19:57;99518.59;;;5.80;89.55
69842;BME280;57138;51.326;-0.068;2023-04-21T05:22:24;99529.69;;;5.84;87.36
69842;BME280;57138;51.326;-0.068;2023-04-21T05:24:51;99507.88;;;5.73;88.41
69842;BME280;57138;51.326;-0.068;2023-04-21T05:27:17;99499.75;;;5.75;88.92
69842;BME280;57138;51.326;-0.068;2023-04-21T05:29:46;99503.50;;;5.81;87.62
69842;BME280;57138;51.326;-0.068;2023-04-21T05:32:12;99504.81;;;5.85;89.30
69842;BME280;57138;51.326;-0.068;2023-04-21T05:34:37;99503.16;;;5.84;88.22
69842;BME280;57138;51.326;-0.068;2023-04-21T05:37:03;99491.63;;;5.76;89.67
69842;BME280;57138;51.326;-0.068;2023-04-21T05:39:28;99503.81;;;5.86;89.38
69842;BME280;57138;51.326;-0.068;2023-04-21T05:41:54;99506.44;;;5.86;89.25
69842;BME280;57138;51.326;-0.068;2023-04-21T05:44:20;99503.81;;;5.86;89.92
69842;BME280;57138;51.326;-0.068;2023-04-21T05:46:45;99497.84;;;5.84;88.92
69842;BME280;57138;51.326;-0.068;2023-04-21T05:49:10;99500.50;;;5.84;89.23
69842;BME280;57138;51.326;-0.068;2023-04-21T05:51:36;99497.50;;;5.87;90.02
69842;BME280;57138;51.326;-0.068;2023-04-21T05:54:02;99492.19;;;5.87;89.49
69842;BME280;57138;51.326;-0.068;2023-04-21T05:56:32;99489.38;;;5.88;88.82
69842;BME280;57138;51.326;-0.068;2023-04-21T05:59:01;99481.59;;;5.87;88.77
69842;BME280;57138;51.326;-0.068;2023-04-21T06:01:26;99491.81;;;5.98;88.81
69842;BME280;57138;51.326;-0.068;2023-04-21T06:03:55;99472.13;;;5.84;88.41
69842;BME280;57138;51.326;-0.068;2023-04-21T06:06:22;99489.47;;;5.95;88.22
69842;BME280;57138;51.326;-0.068;2023-04-21T06:08:48;99470.78;;;5.88;89.07
69842;BME280;57138;51.326;-0.068;2023-04-21T06:11:13;99481.88;;;6.00;89.66
69842;BME280;57138;51.326;-0.068;2023-04-21T06:13:39;99485.63;;;6.06;88.88
69842;BME280;57138;51.326;-0.068;2023-04-21T06:16:04;99475.53;;;6.01;90.28
69842;BME280;57138;51.326;-0.068;2023-04-21T06:18:30;99476.50;;;6.08;88.87
69842;BME280;57138;51.326;-0.068;2023-04-21T06:20:56;99471.19;;;6.08;89.32
69842;BME280;57138;51.326;-0.068;2023-04-21T06:23:21;99469.53;;;6.07;90.12
69842;BME280;57138;51.326;-0.068;2023-04-21T06:26:06;99470.81;;;6.11;88.81
69842;BME280;57138;51.326;-0.068;2023-04-21T06:28:32;99461.88;;;6.13;89.08
69842;BME280;57138;51.326;-0.068;2023-04-21T06:30:59;99463.31;;;6.15;89.60
69842;BME280;57138;51.326;-0.068;2023-04-21T06:33:25;99455.19;;;6.17;90.21
69842;BME280;57138;51.326;-0.068;2023-04-21T06:35:51;99459.78;;;6.23;88.18
69842;BME280;57138;51.326;-0.068;2023-04-21T06:38:17;99451.47;;;6.26;89.92
69842;BME280;57138;51.326;-0.068;2023-04-21T06:40:43;99447.63;;;6.28;90.80
69842;BME280;57138;51.326;-0.068;2023-04-21T06:43:08;99438.19;;;6.26;89.79
69842;BME280;57138;51.326;-0.068;2023-04-21T06:45:35;99439.31;;;6.32;89.26
69842;BME280;57138;51.326;-0.068;2023-04-21T06:48:01;99452.69;;;6.38;89.06
69842;BME280;57138;51.326;-0.068;2023-04-21T06:50:26;99433.09;;;6.39;88.87
69842;BME280;57138;51.326;-0.068;2023-04-21T06:52:52;99431.72;;;6.43;88.19
69842;BME280;57138;51.326;-0.068;2023-04-21T06:55:17;99432.75;;;6.42;87.92
69842;BME280;57138;51.326;-0.068;2023-04-21T06:57:43;99429.91;;;6.44;88.06
69842;BME280;57138;51.326;-0.068;2023-04-21T07:00:09;99436.03;;;6.44;88.38
69842;BME280;57138;51.326;-0.068;2023-04-21T07:02:34;99438.69;;;6.44;87.08
69842;BME280;57138;51.326;-0.068;2023-04-21T07:05:00;99430.63;;;6.38;87.56
69842;BME280;57138;51.326;-0.068;2023-04-21T07:07:25;99431.44;;;6.38;87.06
69842;BME280;57138;51.326;-0.068;2023-04-21T07:09:51;99426.47;;;6.35;86.89
69842;BME280;57138;51.326;-0.068;2023-04-21T07:12:16;99415.41;;;6.32;87.57
69842;BME280;57138;51.326;-0.068;2023-04-21T07:14:42;99429.50;;;6.32;87.56
69842;BME280;57138;51.326;-0.068;2023-04-21T07:17:07;99418.25;;;6.30;88.03
69842;BME280;57138;51.326;-0.068;2023-04-21T07:19:32;99416.13;;;6.25;88.12
69842;BME280;57138;51.326;-0.068;2023-04-21T07:21:58;99415.31;;;6.25;87.36
69842;BME280;57138;51.326;-0.068;2023-04-21T07:24:23;99407.72;;;6.22;88.42
69842;BME280;57138;51.326;-0.068;2023-04-21T07:26:49;99420.63;;;6.25;87.30
69842;BME280;57138;51.326;-0.068;2023-04-21T07:29:15;99411.19;;;6.22;87.25
69842;BME280;57138;51.326;-0.068;2023-04-21T07:31:40;99397.28;;;6.20;87.43
69842;BME280;57138;51.326;-0.068;2023-04-21T07:34:06;99399.03;;;6.28;88.05
69842;BME280;57138;51.326;-0.068;2023-04-21T07:36:31;99395.34;;;6.29;87.41
69842;BME280;57138;51.326;-0.068;2023-04-21T07:38:58;99408.09;;;6.34;88.10
69842;BME280;57138;51.326;-0.068;2023-04-21T07:41:23;99400.28;;;6.32;88.00
69842;BME280;57138;51.326;-0.068;2023-04-21T07:43:49;99396.66;;;6.33;86.55
69842;BME280;57138;51.326;-0.068;2023-04-21T07:46:15;99399.31;;;6.33;87.63
69842;BME280;57138;51.326;-0.068;2023-04-21T07:48:40;99401.97;;;6.33;87.38
69842;BME280;57138;51.326;-0.068;2023-04-21T07:51:05;99392.97;;;6.34;86.84
69842;BME280;57138;51.326;-0.068;2023-04-21T07:53:31;99387.66;;;6.34;85.85
69842;BME280;57138;51.326;-0.068;2023-04-21T07:55:57;99393.34;;;6.31;86.19
69842;BME280;57138;51.326;-0.068;2023-04-21T07:58:22;99384.91;;;6.27;86.55
69842;BME280;57138;51.326;-0.068;2023-04-21T08:00:48;99387.56;;;6.27;85.44
69842;BME280;57138;51.326;-0.068;2023-04-21T08:03:14;99382.16;;;6.21;86.01
69842;BME280;57138;51.326;-0.068;2023-04-21T08:05:39;99378.50;;;6.22;85.22
69842;BME280;57138;51.326;-0.068;2023-04-21T08:08:05;99379.88;;;6.18;86.26
69842;BME280;57138;51.326;-0.068;2023-04-21T08:10:31;99380.50;;;6.20;85.87
69842;BME280;57138;51.326;-0.068;2023-04-21T08:12:56;99377.66;;;6.21;86.40
69842;BME280;57138;51.326;-0.068;2023-04-21T08:15:22;99384.47;;;6.24;86.28
69842;BME280;57138;51.326;-0.068;2023-04-21T08:17:47;99373.66;;;6.25;86.32
69842;BME280;57138;51.326;-0.068;2023-04-21T08:20:13;99377.31;;;6.24;86.27
69842;BME280;57138;51.326;-0.068;2023-04-21T08:22:38;99381.81;;;6.24;86.27
69842;BME280;57138;51.326;-0.068;2023-04-21T08:25:04;99380.16;;;6.23;86.25
69842;BME280;57138;51.326;-0.068;2023-04-21T08:27:32;99376.50;;;6.24;85.95
69842;BME280;57138;51.326;-0.068;2023-04-21T08:29:59;99378.50;;;6.22;86.73
69842;BME280;57138;51.326;-0.068;2023-04-21T08:32:27;99371.19;;;6.24;86.83
69842;BME280;57138;51.326;-0.068;2023-04-21T08:34:54;99372.84;;;6.25;86.44
69842;BME280;57138;51.326;-0.068;2023-04-21T08:37:20;99371.63;;;6.27;86.29
69842;BME280;57138;51.326;-0.068;2023-04-21T08:39:47;99368.81;;;6.29;86.45
69842;BME280;57138;51.326;-0.068;2023-04-21T08:42:18;99370.28;;;6.32;86.08
69842;BME280;57138;51.326;-0.068;2023-04-21T08:44:44;99367.25;;;6.35;86.87
69842;BME280;57138;51.326;-0.068;2023-04-21T08:47:15;99354.53;;;6.30;86.01
69842;BME280;57138;51.326;-0.068;2023-04-21T08:49:41;99365.41;;;6.35;87.68
69842;BME280;57138;51.326;-0.068;2023-04-21T08:52:11;99368.88;;;6.36;85.74
69842;BME280;57138;51.326;-0.068;2023-04-21T08:54:37;99364.78;;;6.33;87.14
69842;BME280;57138;51.326;-0.068;2023-04-21T08:57:07;99372.13;;;6.31;87.39
69842;BME280;57138;51.326;-0.068;2023-04-21T08:59:33;99369.81;;;6.28;86.89
69842;BME280;57138;51.326;-0.068;2023-04-21T09:02:13;99372.84;;;6.25;88.04
69842;BME280;57138;51.326;-0.068;2023-04-21T09:04:59;99376.50;;;6.24;87.96
69842;BME280;57138;51.326;-0.068;2023-04-21T09:09:56;99352.97;;;6.21;88.42
69842;BME280;57138;51.326;-0.068;2023-04-21T09:12:41;99370.91;;;6.34;90.47
69842;BME280;57138;51.326;-0.068;2023-04-21T09:15:21;99353.22;;;6.26;89.92
69842;BME280;57138;51.326;-0.068;2023-04-21T09:17:53;99361.09;;;6.34;89.69
69842;BME280;57138;51.326;-0.068;2023-04-21T09:20:21;99351.34;;;6.35;89.91
69842;BME280;57138;51.326;-0.068;2023-04-21T09:22:47;99364.88;;;6.40;89.20
69842;BME280;57138;51.326;-0.068;2023-04-21T09:25:21;99369.00;;;6.42;90.36
69842;BME280;57138;51.326;-0.068;2023-04-21T09:27:46;99366.63;;;6.47;90.64
69842;BME280;57138;51.326;-0.068;2023-04-21T09:30:12;99368.91;;;6.51;90.00
69842;BME280;57138;51.326;-0.068;2023-04-21T09:32:39;99372.94;;;6.46;89.91
69842;BME280;57138;51.326;-0.068;2023-04-21T09:35:09;99355.06;;;6.40;89.59
69842;BME280;57138;51.326;-0.068;2023-04-21T09:37:43;99367.34;;;6.41;88.73
69842;BME280;57138;51.326;-0.068;2023-04-21T09:40:14;99349.59;;;6.27;87.75
69842;BME280;57138;51.326;-0.068;2023-04-21T09:42:45;99357.56;;;6.27;89.16
69842;BME280;57138;51.326;-0.068;2023-04-21T09:45:17;99352.34;;;6.19;88.24
69842;BME280;57138;51.326;-0.068;2023-04-21T09:48:13;99375.31;;;6.26;89.45
69842;BME280;57138;51.326;-0.068;2023-04-21T09:51:16;99377.03;;;6.19;90.66
69842;BME280;57138;51.326;-0.068;2023-04-21T09:59:04;99380.22;;;6.15;90.80
69842;BME280;57138;51.326;-0.068;2023-04-21T10:01:43;99365.47;;;5.97;90.53
69842;BME280;57138;51.326;-0.068;2023-04-21T10:04:12;99377.34;;;6.01;91.12
69842;BME280;57138;51.326;-0.068;2023-04-21T10:06:42;99372.41;;;5.98;90.68
69842;BME280;57138;51.326;-0.068;2023-04-21T10:09:08;99392.38;;;6.09;91.19
69842;BME280;57138;51.326;-0.068;2023-04-21T10:11:39;99373.25;;;5.99;91.38
69842;BME280;57138;51.326;-0.068;2023-04-21T10:14:05;99377.00;;;6.04;89.99
69842;BME280;57138;51.326;-0.068;2023-04-21T10:16:35;99374.81;;;6.08;91.50
69842;BME280;57138;51.326;-0.068;2023-04-21T10:19:22;99366.69;;;6.09;91.30
69842;BME280;57138;51.326;-0.068;2023-04-21T10:21:49;99358.38;;;6.13;91.97
69842;BME280;57138;51.326;-0.068;2023-04-21T10:24:14;99360.28;;;6.19;92.24
69842;BME280;57138;51.326;-0.068;2023-04-21T10:26:40;99360.38;;;6.25;91.88
69842;BME280;57138;51.326;-0.068;2023-04-21T10:29:07;99357.19;;;6.30;91.56
69842;BME280;57138;51.326;-0.068;2023-04-21T10:31:48;99340.03;;;6.33;92.26
69842;BME280;57138;51.326;-0.068;2023-04-21T10:34:16;99346.19;;;6.48;92.31
69842;BME280;57138;51.326;-0.068;2023-04-21T10:44:50;99336.31;;;6.72;90.91
69842;BME280;57138;51.326;-0.068;2023-04-21T10:49:58;99338.19;;;6.93;91.33
69842;BME280;57138;51.326;-0.068;2023-04-21T10:52:31;99341.00;;;7.06;90.19
69842;BME280;57138;51.326;-0.068;2023-04-21T10:57:25;99345.06;;;7.24;91.38
69842;BME280;57138;51.326;-0.068;2023-04-21T10:59:55;99339.38;;;7.27;89.94
69842;BME280;57138;51.326;-0.068;2023-04-21T11:02:21;99347.97;;;7.29;89.45
69842;BME280;57138;51.326;-0.068;2023-04-21T11:04:51;99339.63;;;7.32;90.60
69842;BME280;57138;51.326;-0.068;2023-04-21T11:07:20;99342.28;;;7.32;90.25
69842;BME280;57138;51.326;-0.068;2023-04-21T11:09:55;99340.72;;;7.37;90.76
69842;BME280;57138;51.326;-0.068;2023-04-21T11:12:26;99339.13;;;7.43;91.44
69842;BME280;57138;51.326;-0.068;2023-04-21T11:14:52;99334.94;;;7.55;91.09
69842;BME280;57138;51.326;-0.068;2023-04-21T11:17:18;99333.81;;;7.65;90.49
69842;BME280;57138;51.326;-0.068;2023-04-21T11:19:57;99336.97;;;7.75;89.73
69842;BME280;57138;51.326;-0.068;2023-04-21T11:22:24;99324.66;;;7.74;87.22
69842;BME280;57138;51.326;-0.068;2023-04-21T11:24:54;99328.75;;;7.70;88.28
69842;BME280;57138;51.326;-0.068;2023-04-21T11:27:20;99332.41;;;7.69;89.33
69842;BME280;57138;51.326;-0.068;2023-04-21T11:29:46;99335.88;;;7.69;89.71
69842;BME280;57138;51.326;-0.068;2023-04-21T11:32:14;99335.69;;;7.71;89.42
69842;BME280;57138;51.326;-0.068;2023-04-21T11:34:40;99341.41;;;7.68;89.68
69842;BME280;57138;51.326;-0.068;2023-04-21T11:37:07;99327.91;;;7.69;89.42
69842;BME280;57138;51.326;-0.068;2023-04-21T11:39:33;99334.06;;;7.70;89.49
69842;BME280;57138;51.326;-0.068;2023-04-21T11:41:58;99340.63;;;7.74;90.33
69842;BME280;57138;51.326;-0.068;2023-04-21T11:44:33;99336.91;;;7.68;89.08
69842;BME280;57138;51.326;-0.068;2023-04-21T11:47:00;99339.78;;;7.67;90.00
69842;BME280;57138;51.326;-0.068;2023-04-21T11:49:42;99343.44;;;7.66;89.92
69842;BME280;57138;51.326;-0.068;2023-04-21T11:52:08;99335.22;;;7.61;90.20
69842;BME280;57138;51.326;-0.068;2023-04-21T11:54:34;99333.56;;;7.60;89.67
69842;BME280;57138;51.326;-0.068;2023-04-21T11:56:59;99341.09;;;7.56;89.67
69842;BME280;57138;51.326;-0.068;2023-04-21T11:59:26;99332.22;;;7.49;89.51
69842;BME280;57138;51.326;-0.068;2023-04-21T12:01:53;99338.75;;;7.46;89.70
69842;BME280;57138;51.326;-0.068;2023-04-21T12:04:20;99340.78;;;7.44;89.87
69842;BME280;57138;51.326;-0.068;2023-04-21T12:06:55;99332.19;;;7.42;89.77
69842;BME280;57138;51.326;-0.068;2023-04-21T12:09:21;99334.66;;;7.44;90.38
69842;BME280;57138;51.326;-0.068;2023-04-21T12:11:51;99339.41;;;7.48;90.18
69842;BME280;57138;51.326;-0.068;2023-04-21T12:14:18;99339.00;;;7.51;90.37
69842;BME280;57138;51.326;-0.068;2023-04-21T12:16:47;99346.63;;;7.54;90.61
69842;BME280;57138;51.326;-0.068;2023-04-21T12:19:24;99340.91;;;7.58;90.03
69842;BME280;57138;51.326;-0.068;2023-04-21T12:21:58;99342.28;;;7.53;89.92
69842;BME280;57138;51.326;-0.068;2023-04-21T12:24:24;99339.22;;;7.50;90.02
69842;BME280;57138;51.326;-0.068;2023-04-21T12:26:50;99340.03;;;7.50;90.81
69842;BME280;57138;51.326;-0.068;2023-04-21T12:29:15;99328.19;;;7.53;90.73
69842;BME280;57138;51.326;-0.068;2023-04-21T12:31:41;99334.75;;;7.57;88.66
69842;BME280;57138;51.326;-0.068;2023-04-21T12:34:06;99341.72;;;7.58;89.08
69842;BME280;57138;51.326;-0.068;2023-04-21T12:36:32;99336.84;;;7.62;90.25
69842;BME280;57138;51.326;-0.068;2023-04-21T12:38:57;99332.28;;;7.77;91.48
69842;BME280;57138;51.326;-0.068;2023-04-21T12:41:23;99331.84;;;8.02;91.70
69842;BME280;57138;51.326;-0.068;2023-04-21T12:43:48;99325.84;;;8.21;90.68
69842;BME280;57138;51.326;-0.068;2023-04-21T12:46:14;99331.69;;;8.38;90.01
69842;BME280;57138;51.326;-0.068;2023-04-21T12:48:39;99331.75;;;8.45;88.80
69842;BME280;57138;51.326;-0.068;2023-04-21T12:51:05;99332.59;;;8.52;88.64
69842;BME280;57138;51.326;-0.068;2023-04-21T12:53:31;99321.63;;;8.69;87.28
69842;BME280;57138;51.326;-0.068;2023-04-21T12:55:56;99320.84;;;8.75;83.83
69842;BME280;57138;51.326;-0.068;2023-04-21T12:58:22;99328.22;;;8.79;86.71
69842;BME280;57138;51.326;-0.068;2023-04-21T13:00:48;99328.25;;;8.86;84.76
69842;BME280;57138;51.326;-0.068;2023-04-21T13:03:14;99322.31;;;8.84;86.10
69842;BME280;57138;51.326;-0.068;2023-04-21T13:05:39;99323.38;;;8.90;86.65
69842;BME280;57138;51.326;-0.068;2023-04-21T13:08:05;99328.69;;;8.90;85.75
69842;BME280;57138;51.326;-0.068;2023-04-21T13:10:30;99325.38;;;8.88;85.43
69842;BME280;57138;51.326;-0.068;2023-04-21T13:12:56;99322.50;;;8.82;85.26
69842;BME280;57138;51.326;-0.068;2023-04-21T13:15:21;99327.16;;;8.74;83.61
69842;BME280;57138;51.326;-0.068;2023-04-21T13:17:48;99326.53;;;8.65;83.16
69842;BME280;57138;51.326;-0.068;2023-04-21T13:20:13;99317.47;;;8.59;85.36
69842;BME280;57138;51.326;-0.068;2023-04-21T13:22:38;99321.59;;;8.62;85.54
69842;BME280;57138;51.326;-0.068;2023-04-21T13:25:04;99326.94;;;8.69;86.22
69842;BME280;57138;51.326;-0.068;2023-04-21T13:27:30;99311.56;;;8.71;85.66